Time;durP1;ratioP1;P1;durP2;ratioP2;P2;SDS_P1;SDS_P2;PMS_P1;PMS_P2;Temp;Humidity;BMP_temperature;BMP_pressure;BME280_temperature;BME280_humidity;BME280_pressure;Samples;Min_cycle;Max_cycle;Signal;HPM_P1;HPM_P2
2023/03/21 00:00:42;;;;;;;3.70;2.80;;;;;;;;;;5093237;28;20411;-86
2023/03/21 00:03:09;;;;;;;5.72;2.25;;;;;;;;;;5093396;28;20048;-86
2023/03/21 00:05:40;;;;;;;3.67;2.53;;;;;;;;;;5092790;28;20059;-86
2023/03/21 00:08:08;;;;;;;4.70;2.78;;;;;;;;;;5093152;28;20553;-85
2023/03/21 00:10:35;;;;;;;7.03;3.15;;;;;;;;;;5094130;28;20055;-85
2023/03/21 00:13:11;;;;;;;8.00;2.75;;;;;;;;;;5092891;28;20056;-85
2023/03/21 00:15:49;;;;;;;2.75;2.15;;;;;;;;;;5092729;28;20063;-85
2023/03/21 00:18:30;;;;;;;6.82;3.17;;;;;;;;;;5093977;28;20092;-86
2023/03/21 00:21:02;;;;;;;2.35;2.00;;;;;;;;;;5092976;28;20058;-85
2023/03/21 00:23:49;;;;;;;2.55;2.35;;;;;;;;;;5093134;28;20052;-86
2023/03/21 00:26:17;;;;;;;8.93;2.85;;;;;;;;;;5092741;28;20044;-85
2023/03/21 00:28:44;;;;;;;2.08;1.88;;;;;;;;;;5092484;28;20130;-85
2023/03/21 00:31:12;;;;;;;2.25;2.05;;;;;;;;;;5094007;28;20455;-86
2023/03/21 00:33:39;;;;;;;4.07;1.75;;;;;;;;;;5092386;28;20056;-85
2023/03/21 00:36:07;;;;;;;2.00;1.90;;;;;;;;;;5092220;28;20400;-85
2023/03/21 00:38:35;;;;;;;2.08;1.90;;;;;;;;;;5092571;28;20480;-86
2023/03/21 00:41:07;;;;;;;5.47;1.92;;;;;;;;;;5092507;28;20047;-86
2023/03/21 00:43:47;;;;;;;3.83;1.65;;;;;;;;;;5092422;28;20086;-85
2023/03/21 00:46:14;;;;;;;3.83;1.95;;;;;;;;;;5092493;28;20083;-86
2023/03/21 00:48:42;;;;;;;2.25;1.83;;;;;;;;;;5092468;28;20052;-86
2023/03/21 00:51:14;;;;;;;3.17;1.70;;;;;;;;;;5093511;28;20138;-85
2023/03/21 00:53:41;;;;;;;2.85;2.20;;;;;;;;;;5092323;28;20122;-85
2023/03/21 00:56:09;;;;;;;3.42;2.05;;;;;;;;;;5092281;28;20121;-85
2023/03/21 00:58:36;;;;;;;1.60;1.50;;;;;;;;;;5093209;28;20083;-86
2023/03/21 01:01:05;;;;;;;4.47;2.03;;;;;;;;;;5107732;28;20052;-88
2023/03/21 01:03:41;;;;;;;3.45;1.67;;;;;;;;;;5092380;28;20044;-85
2023/03/21 01:06:12;;;;;;;2.13;1.55;;;;;;;;;;5091180;28;20098;-86
2023/03/21 01:08:40;;;;;;;9.23;1.95;;;;;;;;;;5091841;28;20108;-86
2023/03/21 01:11:20;;;;;;;4.25;1.95;;;;;;;;;;5091979;28;20107;-85
2023/03/21 01:13:47;;;;;;;2.17;1.50;;;;;;;;;;5092166;28;20048;-86
2023/03/21 01:16:24;;;;;;;1.77;1.67;;;;;;;;;;5093443;28;20460;-85
2023/03/21 01:18:51;;;;;;;2.08;1.88;;;;;;;;;;5091867;28;20507;-85
2023/03/21 01:21:18;;;;;;;2.08;1.98;;;;;;;;;;5092136;28;20048;-85
2023/03/21 01:23:46;;;;;;;2.90;1.95;;;;;;;;;;5093197;28;20059;-86
2023/03/21 01:26:14;;;;;;;2.03;1.65;;;;;;;;;;5092934;28;20495;-86
2023/03/21 01:28:42;;;;;;;4.82;2.08;;;;;;;;;;5092167;28;20135;-85
2023/03/21 01:31:11;;;;;;;2.70;1.98;;;;;;;;;;5092016;28;20052;-86
2023/03/21 01:33:38;;;;;;;2.70;1.85;;;;;;;;;;5092053;28;20542;-86
2023/03/21 01:36:06;;;;;;;1.60;1.50;;;;;;;;;;5092691;28;20056;-84
2023/03/21 01:38:40;;;;;;;2.33;1.75;;;;;;;;;;5092082;28;20059;-86
2023/03/21 01:41:09;;;;;;;1.55;1.45;;;;;;;;;;5091846;28;20457;-86
2023/03/21 01:43:46;;;;;;;4.05;1.52;;;;;;;;;;5091654;28;20090;-85
2023/03/21 01:46:28;;;;;;;2.45;1.50;;;;;;;;;;5091924;28;20059;-86
2023/03/21 01:49:12;;;;;;;1.35;1.35;;;;;;;;;;5092931;28;20109;-85
2023/03/21 01:51:41;;;;;;;5.95;1.70;;;;;;;;;;5093071;28;20121;-85
2023/03/21 01:54:13;;;;;;;2.30;1.55;;;;;;;;;;5091149;28;20101;-86
2023/03/21 01:56:41;;;;;;;2.33;1.50;;;;;;;;;;5091515;28;20063;-86
2023/03/21 01:59:12;;;;;;;2.92;1.70;;;;;;;;;;5092890;28;20040;-86
2023/03/21 02:01:43;;;;;;;2.47;1.80;;;;;;;;;;5091707;28;20087;-86
2023/03/21 02:04:11;;;;;;;3.58;1.70;;;;;;;;;;5091822;28;20048;-85
2023/03/21 02:06:54;;;;;;;4.40;1.70;;;;;;;;;;5092686;28;20058;-86
2023/03/21 02:09:23;;;;;;;4.20;1.85;;;;;;;;;;5092829;28;20047;-86
2023/03/21 02:11:50;;;;;;;2.40;1.85;;;;;;;;;;5091821;28;20059;-85
2023/03/21 02:14:18;;;;;;;2.85;1.90;;;;;;;;;;5098034;28;20063;-86
2023/03/21 02:17:14;;;;;;;2.55;1.50;;;;;;;;;;5099252;28;20052;-86
2023/03/21 02:19:41;;;;;;;2.92;1.73;;;;;;;;;;5096437;28;20044;-86
2023/03/21 02:22:24;;;;;;;1.70;1.60;;;;;;;;;;5095092;28;20098;-85
2023/03/21 02:25:05;;;;;;;2.05;1.95;;;;;;;;;;5095962;28;20126;-85
2023/03/21 02:28:06;;;;;;;3.00;2.00;;;;;;;;;;5096066;28;20054;-86
2023/03/21 02:30:52;;;;;;;3.33;2.00;;;;;;;;;;5055275;28;20097;-86
2023/03/21 02:33:42;;;;;;;6.80;2.00;;;;;;;;;;5096264;28;20036;-86
2023/03/21 02:36:16;;;;;;;9.50;2.28;;;;;;;;;;5095941;28;20056;-86
2023/03/21 02:39:07;;;;;;;2.38;1.58;;;;;;;;;;5094833;28;20059;-85
2023/03/21 02:41:34;;;;;;;3.08;2.22;;;;;;;;;;5084601;28;20408;-86
2023/03/21 02:44:10;;;;;;;2.65;1.80;;;;;;;;;;5096011;28;20076;-86
2023/03/21 02:46:37;;;;;;;5.85;1.90;;;;;;;;;;5094759;28;20040;-86
2023/03/21 02:49:29;;;;;;;2.97;1.75;;;;;;;;;;5094753;28;20054;-86
2023/03/21 02:52:00;;;;;;;2.42;1.58;;;;;;;;;;5094555;28;20506;-86
2023/03/21 02:54:43;;;;;;;3.55;1.60;;;;;;;;;;5094542;28;20545;-86
2023/03/21 02:57:17;;;;;;;1.63;1.48;;;;;;;;;;5095575;28;20051;-86
2023/03/21 02:59:46;;;;;;;1.75;1.58;;;;;;;;;;5094507;28;20460;-85
2023/03/21 03:02:26;;;;;;;3.95;1.52;;;;;;;;;;5095559;28;20410;-86
2023/03/21 03:04:54;;;;;;;1.70;1.60;;;;;;;;;;5095226;28;20048;-86
2023/03/21 03:07:23;;;;;;;1.20;1.20;;;;;;;;;;5094578;28;20047;-85
2023/03/21 03:10:06;;;;;;;1.50;1.38;;;;;;;;;;5094927;28;20075;-85
2023/03/21 03:12:34;;;;;;;;;;;;;;;;;;5094623;28;20407;-86
2023/03/21 03:15:01;;;;;;;4.47;2.35;;;;;;;;;;5077218;28;20287;-86
2023/03/21 03:17:49;;;;;;;2.53;2.10;;;;;;;;;;5094058;28;20048;-86
2023/03/21 03:20:22;;;;;;;7.60;2.40;;;;;;;;;;5094247;28;20112;-86
2023/03/21 03:23:03;;;;;;;3.45;1.60;;;;;;;;;;5093814;28;20508;-86
2023/03/21 03:25:35;;;;;;;9.38;2.05;;;;;;;;;;5095270;28;20052;-85
2023/03/21 03:28:10;;;;;;;4.80;2.17;;;;;;;;;;5096543;28;20054;-86
2023/03/21 03:30:38;;;;;;;2.75;2.10;;;;;;;;;;5106346;28;20051;-85
2023/03/21 03:33:15;;;;;;;4.15;1.65;;;;;;;;;;5094854;28;20460;-86
2023/03/21 03:35:44;;;;;;;1.70;1.60;;;;;;;;;;5093318;28;20056;-85
2023/03/21 03:38:20;;;;;;;6.05;1.75;;;;;;;;;;5093810;28;20075;-86
2023/03/21 03:40:56;;;;;;;5.38;2.10;;;;;;;;;;5093612;28;20056;-86
2023/03/21 03:43:28;;;;;;;2.28;1.58;;;;;;;;;;5094522;28;20123;-85
2023/03/21 03:46:01;;;;;;;4.22;1.90;;;;;;;;;;5094475;28;20040;-85
2023/03/21 03:48:45;;;;;;;2.63;1.48;;;;;;;;;;5093303;28;20056;-85
2023/03/21 03:51:16;;;;;;;1.70;1.58;;;;;;;;;;5093512;28;20043;-86
2023/03/21 03:53:51;;;;;;;2.38;1.48;;;;;;;;;;5093278;28;20054;-85
2023/03/21 03:56:19;;;;;;;1.98;1.70;;;;;;;;;;5092684;28;20056;-85
2023/03/21 03:58:46;;;;;;;1.60;1.50;;;;;;;;;;5094130;28;20123;-85
2023/03/21 04:01:14;;;;;;;2.90;1.90;;;;;;;;;;5094105;28;20044;-86
2023/03/21 04:03:42;;;;;;;2.00;1.80;;;;;;;;;;5093030;28;20048;-86
2023/03/21 04:06:18;;;;;;;7.55;2.10;;;;;;;;;;5094121;28;20052;-86
2023/03/21 04:08:45;;;;;;;3.83;2.20;;;;;;;;;;5094066;28;20048;-85
2023/03/21 04:11:13;;;;;;;4.50;2.10;;;;;;;;;;5094074;28;20050;-86
2023/03/21 04:13:41;;;;;;;5.20;1.60;;;;;;;;;;5092943;28;20052;-85
2023/03/21 04:16:10;;;;;;;4.45;1.70;;;;;;;;;;5092816;28;20496;-86
2023/03/21 04:18:38;;;;;;;2.15;1.92;;;;;;;;;;5092951;28;20126;-86
2023/03/21 04:21:09;;;;;;;2.85;1.95;;;;;;;;;;5092544;28;20545;-85
2023/03/21 04:23:37;;;;;;;7.35;1.88;;;;;;;;;;5093005;28;20084;-86
2023/03/21 04:26:04;;;;;;;2.65;2.00;;;;;;;;;;5092790;28;20067;-85
2023/03/21 04:28:32;;;;;;;4.68;2.10;;;;;;;;;;5093642;28;20055;-85
2023/03/21 04:30:59;;;;;;;3.03;2.03;;;;;;;;;;5092753;28;20056;-86
2023/03/21 04:33:37;;;;;;;2.60;1.92;;;;;;;;;;5093917;28;20044;-85
2023/03/21 04:36:08;;;;;;;4.10;1.85;;;;;;;;;;5093468;28;20056;-85
2023/03/21 04:38:36;;;;;;;4.53;1.90;;;;;;;;;;5093764;28;20143;-86
2023/03/21 04:41:03;;;;;;;4.97;1.92;;;;;;;;;;5092760;28;20135;-86
2023/03/21 04:43:30;;;;;;;2.60;1.90;;;;;;;;;;5106655;28;20036;-86
2023/03/21 04:45:58;;;;;;;3.60;2.38;;;;;;;;;;5097616;28;20075;-86
2023/03/21 04:48:25;;;;;;;2.95;2.00;;;;;;;;;;5092574;28;20048;-86
2023/03/21 04:50:52;;;;;;;6.13;2.05;;;;;;;;;;5092512;28;20044;-85
2023/03/21 04:53:20;;;;;;;3.78;2.20;;;;;;;;;;5092579;28;20134;-86
2023/03/21 04:55:47;;;;;;;4.22;2.20;;;;;;;;;;5092458;28;20048;-86
2023/03/21 04:58:19;;;;;;;3.50;1.98;;;;;;;;;;5092582;28;20083;-86
2023/03/21 05:00:46;;;;;;;2.20;2.00;;;;;;;;;;5092519;28;20070;-86
2023/03/21 05:03:18;;;;;;;9.82;2.00;;;;;;;;;;5092528;28;20059;-85
2023/03/21 05:05:45;;;;;;;14.75;3.03;;;;;;;;;;5093509;28;20048;-85
2023/03/21 05:08:13;;;;;;;10.10;2.60;;;;;;;;;;5092012;28;20078;-86
2023/03/21 05:10:40;;;;;;;7.95;2.83;;;;;;;;;;5093403;28;20044;-86
2023/03/21 05:13:07;;;;;;;4.80;2.22;;;;;;;;;;5092496;28;20412;-86
2023/03/21 05:15:34;;;;;;;5.45;2.88;;;;;;;;;;5092507;28;20044;-86
2023/03/21 05:18:10;;;;;;;6.90;3.83;;;;;;;;;;5092268;28;20053;-86
2023/03/21 05:20:41;;;;;;;5.75;2.75;;;;;;;;;;5092109;28;20131;-85
2023/03/21 05:23:12;;;;;;;6.53;3.92;;;;;;;;;;5092406;28;20182;-86
2023/03/21 05:25:39;;;;;;;7.32;4.63;;;;;;;;;;5093424;28;20052;-86
2023/03/21 05:28:07;;;;;;;7.35;4.03;;;;;;;;;;5093331;28;20047;-85
2023/03/21 05:30:34;;;;;;;5.35;4.35;;;;;;;;;;5093649;28;20134;-86
2023/03/21 05:33:01;;;;;;;7.82;3.95;;;;;;;;;;5091854;28;20056;-86
2023/03/21 05:35:29;;;;;;;8.48;3.42;;;;;;;;;;5091882;28;20048;-85
2023/03/21 05:37:56;;;;;;;5.60;3.20;;;;;;;;;;5091788;28;20140;-85
2023/03/21 05:40:23;;;;;;;13.57;3.80;;;;;;;;;;5092170;28;20044;-86
2023/03/21 05:42:50;;;;;;;7.20;2.90;;;;;;;;;;5092938;28;20059;-86
2023/03/21 05:45:18;;;;;;;7.85;2.83;;;;;;;;;;5092049;28;20481;-86
2023/03/21 05:47:45;;;;;;;6.03;2.55;;;;;;;;;;5091936;28;20051;-86
2023/03/21 05:50:12;;;;;;;5.65;2.75;;;;;;;;;;5092101;28;20553;-86
2023/03/21 05:52:40;;;;;;;24.77;4.28;;;;;;;;;;5093464;28;20052;-86
2023/03/21 05:55:07;;;;;;;6.38;3.30;;;;;;;;;;5097283;28;20071;-86
2023/03/21 05:57:38;;;;;;;7.47;3.63;;;;;;;;;;5109222;28;20038;-85
2023/03/21 06:00:06;;;;;;;5.00;3.47;;;;;;;;;;5101571;28;20059;-86
2023/03/21 06:02:34;;;;;;;5.72;3.55;;;;;;;;;;5096853;28;20153;-86
2023/03/21 06:05:01;;;;;;;6.03;3.00;;;;;;;;;;5095279;28;20123;-87
2023/03/21 06:07:28;;;;;;;3.20;2.85;;;;;;;;;;5095509;28;20492;-86
2023/03/21 06:09:56;;;;;;;3.33;3.03;;;;;;;;;;5095551;28;20055;-86
2023/03/21 06:12:23;;;;;;;5.95;2.70;;;;;;;;;;5095155;28;20127;-86
2023/03/21 06:14:50;;;;;;;5.40;2.25;;;;;;;;;;5096338;28;20079;-85
2023/03/21 06:17:17;;;;;;;3.25;2.42;;;;;;;;;;5096408;28;20048;-85
2023/03/21 06:19:44;;;;;;;5.80;3.28;;;;;;;;;;5096089;28;20045;-86
2023/03/21 06:22:12;;;;;;;5.28;2.78;;;;;;;;;;5096568;28;20456;-85
2023/03/21 06:24:39;;;;;;;4.60;2.78;;;;;;;;;;5095274;28;20131;-86
2023/03/21 06:27:06;;;;;;;6.82;2.85;;;;;;;;;;5095013;28;20056;-86
2023/03/21 06:29:33;;;;;;;6.97;2.83;;;;;;;;;;5095018;28;20062;-86
2023/03/21 06:32:01;;;;;;;8.70;3.05;;;;;;;;;;5094743;28;20052;-85
2023/03/21 06:34:28;;;;;;;4.82;3.20;;;;;;;;;;5094676;28;20048;-86
2023/03/21 06:36:55;;;;;;;6.07;2.40;;;;;;;;;;5094150;28;20067;-86
2023/03/21 06:39:23;;;;;;;8.43;3.15;;;;;;;;;;5095603;28;20059;-86
2023/03/21 06:41:50;;;;;;;8.75;2.85;;;;;;;;;;5094580;28;20051;-86
2023/03/21 06:44:17;;;;;;;15.50;3.58;;;;;;;;;;5094625;28;20416;-86
2023/03/21 06:46:44;;;;;;;12.63;3.20;;;;;;;;;;5094618;28;20047;-86
2023/03/21 06:49:12;;;;;;;7.18;3.60;;;;;;;;;;5094037;28;20044;-85
2023/03/21 06:51:39;;;;;;;8.55;5.75;;;;;;;;;;5095802;28;20047;-85
2023/03/21 06:54:06;;;;;;;7.25;4.65;;;;;;;;;;5095383;28;20048;-86
2023/03/21 06:56:34;;;;;;;4.88;3.25;;;;;;;;;;5094133;28;20058;-85
2023/03/21 06:59:01;;;;;;;7.80;3.70;;;;;;;;;;5095474;28;20416;-86
2023/03/21 07:01:29;;;;;;;5.50;3.00;;;;;;;;;;5093767;28;20058;-85
2023/03/21 07:03:58;;;;;;;7.45;3.60;;;;;;;;;;5094304;28;20050;-86
2023/03/21 07:06:26;;;;;;;6.15;3.05;;;;;;;;;;5094526;28;20484;-86
2023/03/21 07:08:54;;;;;;;6.15;4.03;;;;;;;;;;5094420;28;20048;-85
2023/03/21 07:11:22;;;;;;;5.72;3.25;;;;;;;;;;5100355;28;20039;-85
2023/03/21 07:13:50;;;;;;;5.60;3.22;;;;;;;;;;5103173;28;20609;-86
2023/03/21 07:16:17;;;;;;;6.47;3.15;;;;;;;;;;5094722;28;20063;-86
2023/03/21 07:18:45;;;;;;;5.20;3.17;;;;;;;;;;5095133;28;20093;-86
2023/03/21 07:21:13;;;;;;;5.20;3.10;;;;;;;;;;5094144;28;20051;-84
2023/03/21 07:23:40;;;;;;;4.45;3.10;;;;;;;;;;5093822;28;20090;-85
2023/03/21 07:26:07;;;;;;;8.73;3.03;;;;;;;;;;5093948;28;20044;-86
2023/03/21 07:28:35;;;;;;;7.78;3.88;;;;;;;;;;5094800;28;20408;-85
2023/03/21 07:31:04;;;;;;;5.38;3.10;;;;;;;;;;5094917;28;20048;-85
2023/03/21 07:33:32;;;;;;;3.20;2.85;;;;;;;;;;5093748;28;20075;-86
2023/03/21 07:35:59;;;;;;;7.30;4.93;;;;;;;;;;5093265;28;20397;-85
2023/03/21 07:38:29;;;;;;;9.32;7.18;;;;;;;;;;5093530;28;20048;-85
2023/03/21 07:40:58;;;;;;;6.72;3.70;;;;;;;;;;5093628;28;20040;-86
2023/03/21 07:43:25;;;;;;;5.40;3.30;;;;;;;;;;5093368;28;20480;-86
2023/03/21 07:45:56;;;;;;;5.38;2.65;;;;;;;;;;5094442;28;20498;-85
2023/03/21 07:48:23;;;;;;;5.65;2.80;;;;;;;;;;5093299;28;20050;-85
2023/03/21 07:50:50;;;;;;;7.57;6.13;;;;;;;;;;5092903;28;20048;-85
2023/03/21 07:53:18;;;;;;;13.13;11.35;;;;;;;;;;5091003;28;20044;-85
2023/03/21 07:55:45;;;;;;;11.65;5.13;;;;;;;;;;5090667;28;20389;-86
2023/03/21 07:58:12;;;;;;;5.93;3.72;;;;;;;;;;5092927;28;20052;-86
2023/03/21 08:00:39;;;;;;;5.05;2.50;;;;;;;;;;5092531;28;20051;-87
2023/03/21 08:03:06;;;;;;;5.40;2.80;;;;;;;;;;5094293;28;20056;-85
2023/03/21 08:05:35;;;;;;;3.28;2.38;;;;;;;;;;5092635;28;20510;-86
2023/03/21 08:08:04;;;;;;;6.65;3.33;;;;;;;;;;5092969;28;20086;-85
2023/03/21 08:10:31;;;;;;;4.55;2.60;;;;;;;;;;5092659;28;20492;-85
2023/03/21 08:12:58;;;;;;;4.80;2.20;;;;;;;;;;5092888;28;20048;-85
2023/03/21 08:15:26;;;;;;;4.25;2.03;;;;;;;;;;5091825;28;20052;-86
2023/03/21 08:17:53;;;;;;;4.53;1.35;;;;;;;;;;5093613;28;20052;-85
2023/03/21 08:20:22;;;;;;;8.60;2.40;;;;;;;;;;5092500;28;20058;-85
2023/03/21 08:22:50;;;;;;;3.72;2.00;;;;;;;;;;5092455;28;20083;-85
2023/03/21 08:25:18;;;;;;;4.85;1.90;;;;;;;;;;5094941;28;20135;-86
2023/03/21 08:27:45;;;;;;;4.80;2.00;;;;;;;;;;5093663;28;20078;-85
2023/03/21 08:30:14;;;;;;;5.22;1.80;;;;;;;;;;5093630;28;20377;-85
2023/03/21 08:32:41;;;;;;;6.32;1.75;;;;;;;;;;5092299;28;20048;-84
2023/03/21 08:35:10;;;;;;;4.38;1.90;;;;;;;;;;5091880;28;20080;-85
2023/03/21 08:37:37;;;;;;;4.22;1.55;;;;;;;;;;5091772;28;20063;-85
2023/03/21 08:40:07;;;;;;;2.72;1.52;;;;;;;;;;5091795;28;20423;-85
2023/03/21 08:42:35;;;;;;;5.47;1.80;;;;;;;;;;5093209;28;20048;-85
2023/03/21 08:45:03;;;;;;;2.63;1.27;;;;;;;;;;5091792;28;20427;-85
2023/03/21 08:47:31;;;;;;;4.00;1.70;;;;;;;;;;5091220;28;20062;-84
2023/03/21 08:49:58;;;;;;;7.13;2.30;;;;;;;;;;5091821;28;20055;-83
2023/03/21 08:52:26;;;;;;;2.78;1.45;;;;;;;;;;5092165;28;20076;-83
2023/03/21 08:54:54;;;;;;;3.38;1.30;;;;;;;;;;5092796;28;20054;-83
2023/03/21 08:57:21;;;;;;;5.38;1.52;;;;;;;;;;5091822;28;20051;-83
2023/03/21 08:59:49;;;;;;;5.68;1.60;;;;;;;;;;5091436;28;20055;-83
2023/03/21 09:02:16;;;;;;;5.47;1.90;;;;;;;;;;5091701;28;20537;-83
2023/03/21 09:04:44;;;;;;;9.40;3.45;;;;;;;;;;5091157;28;20474;-83
2023/03/21 09:07:13;;;;;;;2.22;1.27;;;;;;;;;;5093016;28;20407;-83
2023/03/21 09:09:41;;;;;;;2.08;1.25;;;;;;;;;;5092667;28;20427;-83
2023/03/21 09:12:08;;;;;;;5.00;1.58;;;;;;;;;;5091974;28;20052;-83
2023/03/21 09:14:35;;;;;;;26.45;2.47;;;;;;;;;;5091747;28;20044;-85
2023/03/21 09:17:02;;;;;;;9.57;1.58;;;;;;;;;;5092954;28;20159;-85
2023/03/21 09:19:30;;;;;;;6.18;1.75;;;;;;;;;;5092694;28;20048;-84
2023/03/21 09:21:58;;;;;;;4.15;1.23;;;;;;;;;;5092554;28;20117;-85
2023/03/21 09:24:25;;;;;;;19.67;2.22;;;;;;;;;;5090506;28;20112;-82
2023/03/21 09:26:52;;;;;;;11.23;1.80;;;;;;;;;;5091326;28;20048;-84
2023/03/21 09:29:21;;;;;;;21.73;2.45;;;;;;;;;;5096719;28;20052;-85
2023/03/21 09:31:49;;;;;;;5.07;1.40;;;;;;;;;;5095600;28;20059;-85
2023/03/21 09:34:16;;;;;;;8.10;1.67;;;;;;;;;;5095527;28;20048;-83
2023/03/21 09:36:47;;;;;;;5.78;1.25;;;;;;;;;;5096322;28;20567;-83
2023/03/21 09:39:15;;;;;;;6.85;1.35;;;;;;;;;;5096683;28;20043;-83
2023/03/21 09:41:57;;;;;;;3.60;1.52;;;;;;;;;;5097183;28;20040;-83
2023/03/21 09:44:31;;;;;;;1.50;0.85;;;;;;;;;;5096125;28;20127;-82
2023/03/21 09:47:02;;;;;;;3.55;1.58;;;;;;;;;;5096444;28;20048;-82
2023/03/21 09:49:35;;;;;;;4.78;1.15;;;;;;;;;;5096247;28;20040;-82
2023/03/21 09:52:06;;;;;;;2.90;1.20;;;;;;;;;;5094774;28;20471;-83
2023/03/21 09:54:38;;;;;;;4.00;1.20;;;;;;;;;;5095195;28;20079;-83
2023/03/21 09:57:13;;;;;;;2.55;1.20;;;;;;;;;;5094988;28;20044;-83
2023/03/21 09:59:42;;;;;;;3.33;1.25;;;;;;;;;;5094851;28;20052;-83
2023/03/21 10:02:21;;;;;;;2.58;1.10;;;;;;;;;;5096462;28;20040;-83
2023/03/21 10:04:48;;;;;;;4.22;1.10;;;;;;;;;;5094644;28;20055;-82
2023/03/21 10:07:18;;;;;;;2.33;1.15;;;;;;;;;;5096111;28;20446;-82
2023/03/21 10:09:46;;;;;;;3.45;1.10;;;;;;;;;;5094709;28;20090;-83
2023/03/21 10:12:20;;;;;;;2.45;1.00;;;;;;;;;;5094799;28;20058;-82
2023/03/21 10:14:49;;;;;;;3.22;0.90;;;;;;;;;;5095585;28;20563;-83
2023/03/21 10:17:30;;;;;;;2.47;1.23;;;;;;;;;;5095831;28;20052;-83
2023/03/21 10:20:09;;;;;;;5.40;1.10;;;;;;;;;;5094515;28;20393;-83
2023/03/21 10:22:38;;;;;;;2.88;0.90;;;;;;;;;;5094380;28;20051;-83
2023/03/21 10:25:06;;;;;;;3.22;1.30;;;;;;;;;;5094498;28;20048;-83
2023/03/21 10:27:35;;;;;;;3.53;1.00;;;;;;;;;;5095489;28;20484;-83
2023/03/21 10:30:06;;;;;;;3.65;1.13;;;;;;;;;;5094401;28;20060;-83
2023/03/21 10:32:34;;;;;;;5.95;1.20;;;;;;;;;;5094305;28;20142;-84
2023/03/21 10:35:03;;;;;;;2.80;0.90;;;;;;;;;;5094021;28;20048;-84
2023/03/21 10:37:31;;;;;;;2.15;1.25;;;;;;;;;;5094124;28;20530;-83
2023/03/21 10:39:59;;;;;;;3.42;1.23;;;;;;;;;;5094731;28;20047;-83
2023/03/21 10:42:28;;;;;;;3.67;1.20;;;;;;;;;;5094318;28;20044;-84
2023/03/21 10:44:56;;;;;;;3.33;1.20;;;;;;;;;;5094989;28;20567;-85
2023/03/21 10:47:31;;;;;;;5.35;1.70;;;;;;;;;;5094482;28;20055;-83
2023/03/21 10:50:04;;;;;;;3.92;1.20;;;;;;;;;;5093714;28;20052;-83
2023/03/21 10:52:36;;;;;;;5.10;1.23;;;;;;;;;;5094102;28;20097;-83
2023/03/21 10:55:16;;;;;;;2.25;1.20;;;;;;;;;;5095083;28;20480;-83
2023/03/21 10:57:45;;;;;;;2.83;1.15;;;;;;;;;;5095163;28;20090;-83
2023/03/21 11:00:19;;;;;;;5.28;1.55;;;;;;;;;;5093729;28;20492;-82
2023/03/21 11:02:50;;;;;;;3.15;1.10;;;;;;;;;;5093870;28;20439;-83
2023/03/21 11:05:26;;;;;;;1.75;1.17;;;;;;;;;;5093819;28;20098;-83
2023/03/21 11:08:02;;;;;;;3.53;0.95;;;;;;;;;;5093443;28;20402;-83
2023/03/21 11:10:31;;;;;;;6.95;1.13;;;;;;;;;;5093412;28;20613;-83
2023/03/21 11:13:01;;;;;;;1.85;0.90;;;;;;;;;;5093351;28;20055;-83
2023/03/21 11:15:32;;;;;;;3.03;0.93;;;;;;;;;;5093365;28;20044;-83
2023/03/21 11:18:00;;;;;;;4.35;1.00;;;;;;;;;;5093428;28;20078;-83
2023/03/21 11:20:30;;;;;;;43.78;3.00;;;;;;;;;;5093466;28;20415;-83
2023/03/21 11:22:57;;;;;;;10.40;1.80;;;;;;;;;;5093326;28;20054;-83
2023/03/21 11:25:34;;;;;;;4.90;1.15;;;;;;;;;;5094587;28;20139;-83
2023/03/21 11:28:05;;;;;;;4.50;1.10;;;;;;;;;;5094383;28;20074;-83
2023/03/21 11:30:33;;;;;;;14.15;2.50;;;;;;;;;;5093543;28;20043;-84
2023/03/21 11:33:02;;;;;;;7.60;2.40;;;;;;;;;;5094690;28;20052;-83
2023/03/21 11:35:36;;;;;;;3.55;1.55;;;;;;;;;;5092664;28;20510;-84
2023/03/21 11:38:06;;;;;;;5.00;1.52;;;;;;;;;;5093140;28;20054;-83
2023/03/21 11:40:35;;;;;;;3.08;1.10;;;;;;;;;;5093323;28;20048;-85
2023/03/21 11:43:03;;;;;;;3.30;1.17;;;;;;;;;;5093432;28;20055;-84
2023/03/21 11:45:31;;;;;;;1.83;0.88;;;;;;;;;;5093006;28;20090;-83
2023/03/21 11:48:00;;;;;;;2.60;0.90;;;;;;;;;;5093085;28;20138;-84
2023/03/21 11:50:32;;;;;;;3.08;0.90;;;;;;;;;;5093555;28;20048;-83
2023/03/21 11:52:59;;;;;;;4.40;1.23;;;;;;;;;;5093341;28;20082;-84
2023/03/21 11:55:38;;;;;;;1.85;0.77;;;;;;;;;;5092799;28;20048;-85
2023/03/21 11:58:18;;;;;;;4.07;1.02;;;;;;;;;;5092667;28;20055;-83
2023/03/21 12:01:00;;;;;;;2.33;0.90;;;;;;;;;;5092847;28;20376;-85
2023/03/21 12:03:42;;;;;;;3.50;1.20;;;;;;;;;;5092888;28;20135;-84
2023/03/21 12:06:38;;;;;;;3.47;1.30;;;;;;;;;;5094118;28;20054;-84
2023/03/21 12:09:14;;;;;;;4.32;1.08;;;;;;;;;;5057857;28;20101;-83
2023/03/21 12:12:02;;;;;;;7.18;1.38;;;;;;;;;;5096230;28;20048;-83
2023/03/21 12:14:48;;;;;;;5.00;1.20;;;;;;;;;;5092862;28;20084;-86
2023/03/21 12:17:34;;;;;;;12.27;1.50;;;;;;;;;;5093679;28;20480;-86
2023/03/21 12:20:09;;;;;;;17.38;2.67;;;;;;;;;;5092902;28;20407;-86
2023/03/21 12:22:36;;;;;;;2.75;1.00;;;;;;;;;;5092838;28;20054;-86
2023/03/21 12:25:11;;;;;;;8.15;1.33;;;;;;;;;;5093971;28;20133;-87
2023/03/21 12:27:58;;;;;;;5.50;1.15;;;;;;;;;;5092246;28;20052;-85
2023/03/21 12:30:32;;;;;;;2.65;1.17;;;;;;;;;;5092591;28;20559;-86
2023/03/21 12:33:06;;;;;;;3.42;1.05;;;;;;;;;;5092541;28;20403;-85
2023/03/21 12:35:33;;;;;;;;;;;;;;;;;;5092830;28;20048;-85
2023/03/21 12:38:24;;;;;;;2.17;1.10;;;;;;;;;;5095394;28;19976;-85
2023/03/21 12:40:55;;;;;;;1.73;1.00;;;;;;;;;;5084307;28;20071;-86
2023/03/21 12:43:37;;;;;;;3.20;1.02;;;;;;;;;;5095948;28;20051;-85
2023/03/21 12:46:08;;;;;;;4.30;1.10;;;;;;;;;;5113502;28;20058;-85
2023/03/21 12:48:53;;;;;;;3.30;1.23;;;;;;;;;;5095722;28;20047;-86
2023/03/21 12:51:24;;;;;;;2.83;0.93;;;;;;;;;;5114049;28;20098;-86
2023/03/21 12:54:04;;;;;;;4.22;1.27;;;;;;;;;;5113608;28;20414;-85
2023/03/21 12:56:39;;;;;;;3.80;1.33;;;;;;;;;;5113908;28;20130;-86
2023/03/21 12:59:22;;;;;;;3.70;1.20;;;;;;;;;;5095956;28;20130;-86
2023/03/21 13:01:52;;;;;;;2.83;1.25;;;;;;;;;;5095632;28;20051;-86
2023/03/21 13:04:19;;;;;;;1.92;0.82;;;;;;;;;;5095460;28;20510;-85
2023/03/21 13:06:52;;;;;;;2.88;0.98;;;;;;;;;;5095585;28;20073;-85
2023/03/21 13:09:28;;;;;;;6.20;1.13;;;;;;;;;;5095385;28;20111;-85
2023/03/21 13:12:19;;;;;;;3.70;0.88;;;;;;;;;;5096687;28;20048;-85
2023/03/21 13:14:54;;;;;;;2.70;0.90;;;;;;;;;;5113518;28;20477;-83
2023/03/21 13:17:26;;;;;;;2.38;0.93;;;;;;;;;;5113552;28;20044;-86
2023/03/21 13:19:58;;;;;;;1.83;0.75;;;;;;;;;;5095326;28;20051;-86
2023/03/21 13:22:29;;;;;;;1.98;1.00;;;;;;;;;;5113644;28;20047;-86
2023/03/21 13:25:03;;;;;;;4.88;0.82;;;;;;;;;;5121188;28;20054;-83
2023/03/21 13:27:32;;;;;;;3.03;0.90;;;;;;;;;;5096256;28;20414;-84
2023/03/21 13:30:05;;;;;;;3.38;1.10;;;;;;;;;;5113175;28;20047;-84
2023/03/21 13:32:34;;;;;;;3.10;1.10;;;;;;;;;;5095545;28;20056;-85
2023/03/21 13:35:03;;;;;;;1.10;0.60;;;;;;;;;;5112883;28;20118;-85
2023/03/21 13:37:33;;;;;;;2.25;1.00;;;;;;;;;;5095142;28;20145;-86
2023/03/21 13:40:08;;;;;;;5.78;0.98;;;;;;;;;;5095213;28;20051;-85
2023/03/21 13:42:41;;;;;;;3.28;0.80;;;;;;;;;;5095053;28;20076;-86
2023/03/21 13:45:10;;;;;;;2.88;0.85;;;;;;;;;;5113281;28;20054;-85
2023/03/21 13:47:39;;;;;;;2.10;1.02;;;;;;;;;;5095122;28;20044;-86
2023/03/21 13:50:19;;;;;;;2.60;0.65;;;;;;;;;;5113144;28;20047;-85
2023/03/21 13:53:01;;;;;;;2.45;0.80;;;;;;;;;;5093418;28;20158;-85
2023/03/21 13:55:29;;;;;;;3.72;1.05;;;;;;;;;;5094951;28;20138;-86
2023/03/21 13:57:56;;;;;;;2.00;1.13;;;;;;;;;;5095075;28;20044;-85
2023/03/21 14:00:29;;;;;;;5.70;1.00;;;;;;;;;;5113117;28;20055;-86
2023/03/21 14:03:02;;;;;;;1.95;0.90;;;;;;;;;;5094789;28;20052;-86
2023/03/21 14:05:30;;;;;;;3.05;1.13;;;;;;;;;;5094723;28;20052;-85
2023/03/21 14:08:00;;;;;;;7.15;1.40;;;;;;;;;;5112709;28;20048;-86
2023/03/21 14:10:42;;;;;;;1.48;1.05;;;;;;;;;;5096974;28;20127;-86
2023/03/21 14:13:15;;;;;;;3.92;1.50;;;;;;;;;;5113324;28;20502;-88
2023/03/21 14:15:47;;;;;;;5.63;1.05;;;;;;;;;;5098380;28;20120;-85
2023/03/21 14:18:24;;;;;;;6.22;0.93;;;;;;;;;;5116866;28;20153;-84
2023/03/21 14:21:16;;;;;;;2.83;0.88;;;;;;;;;;5101960;28;20100;-86
2023/03/21 14:24:00;;;;;;;1.92;0.82;;;;;;;;;;5116076;28;20054;-85
2023/03/21 14:26:30;;;;;;;1.85;0.95;;;;;;;;;;5098436;28;20051;-85
2023/03/21 14:28:57;;;;;;;6.18;1.52;;;;;;;;;;5098293;28;20075;-87
2023/03/21 14:31:26;;;;;;;3.38;1.10;;;;;;;;;;5116355;28;20483;-85
2023/03/21 14:33:55;;;;;;;3.40;1.13;;;;;;;;;;5098457;28;20564;-86
2023/03/21 14:36:34;;;;;;;1.15;0.90;;;;;;;;;;5094668;28;20052;-85
2023/03/21 14:39:06;;;;;;;2.30;1.10;;;;;;;;;;5098880;28;20562;-86
2023/03/21 14:41:34;;;;;;;2.53;1.30;;;;;;;;;;5102316;28;20059;-86
2023/03/21 14:44:01;;;;;;;3.70;0.95;;;;;;;;;;5095418;28;20071;-85
2023/03/21 14:46:29;;;;;;;3.58;1.20;;;;;;;;;;5094410;28;20388;-86
2023/03/21 14:49:09;;;;;;;5.60;1.42;;;;;;;;;;5095514;28;20396;-84
2023/03/21 14:51:37;;;;;;;2.08;1.10;;;;;;;;;;5094547;28;20052;-86
2023/03/21 14:54:05;;;;;;;3.85;1.40;;;;;;;;;;5095336;28;20055;-85
2023/03/21 14:56:35;;;;;;;3.17;1.23;;;;;;;;;;5094349;28;20083;-85
2023/03/21 14:59:02;;;;;;;8.30;2.05;;;;;;;;;;5094465;28;20067;-85
2023/03/21 15:01:33;;;;;;;2.25;0.95;;;;;;;;;;5094304;28;20048;-86
2023/03/21 15:04:03;;;;;;;1.77;1.10;;;;;;;;;;5093705;28;20067;-85
2023/03/21 15:06:31;;;;;;;2.35;1.20;;;;;;;;;;5094055;28;20051;-86